.
WxDataArchive / Data Records for 2008-03-21
2008-03-20 March 2008 2008-03-22

Data Records for Friday, 21 March 2008

Time	Temp	Chill	HIndex	Humid	Dewpt	 Wind 	HiWind	WindDir	Rain 	Barom 
-----	----	-----	------	-----	-----	------	------	-------	-----	----- 
00:00	30.0	30.0	30.0	66	20.0	0	0	---	0.00	30.268 
00:05	29.7	29.7	29.7	66	19.8	0	0	---	0.00	30.267 
00:10	29.5	29.5	29.5	67	19.9	0	0	---	0.00	30.266 
00:15	29.5	29.5	29.5	66	19.6	0	0	---	0.00	30.266 
00:20	29.5	29.5	29.5	67	19.9	0	1	270	0.00	30.263 
00:25	29.5	29.5	29.5	67	19.9	0	0	---	0.00	30.259 
00:30	29.7	29.7	29.7	67	20.1	0	0	---	0.00	30.261 
00:35	29.7	29.7	29.7	66	19.8	0	0	---	0.00	30.261 
00:40	29.7	29.7	29.7	66	19.8	0	1	270	0.00	30.261 
00:45	30.0	30.0	30.0	66	20.0	0	0	---	0.00	30.268 
00:50	30.3	30.3	30.3	64	19.6	0	1	270	0.00	30.272 
00:55	30.6	30.6	30.6	64	19.9	0	0	---	0.00	30.273 
01:00	30.7	30.7	30.7	64	20.0	0	0	---	0.00	30.278 
01:05	30.7	30.7	30.7	63	19.6	0	1	270	0.00	30.284 
01:10	30.7	30.7	30.7	64	20.0	0	0	---	0.00	30.288 
01:15	30.7	30.7	30.7	64	20.0	0	0	---	0.00	30.291 
01:20	30.7	30.7	30.7	64	20.0	0	0	---	0.00	30.293 
01:25	30.9	30.9	30.9	64	20.2	0	0	---	0.00	30.301 
01:30	30.9	30.9	30.9	64	20.2	0	0	---	0.00	30.302 
01:35	30.9	30.9	30.9	64	20.2	0	1	270	0.00	30.303 
01:40	30.9	30.9	30.9	64	20.2	0	0	---	0.00	30.303 
01:45	30.9	30.9	30.9	65	20.5	0	1	270	0.00	30.303 
01:50	30.9	30.9	30.9	64	20.2	0	1	270	0.00	30.303 
01:55	31.0	31.0	31.0	65	20.6	0	1	270	0.00	30.303 
02:00	31.0	31.0	31.0	65	20.6	0	1	270	0.00	30.303 
02:05	31.0	31.0	31.0	65	20.6	0	2	270	0.00	30.303 
02:10	31.0	31.0	31.0	65	20.6	0	1	270	0.00	30.302 
02:15	30.9	30.9	30.9	65	20.5	0	1	270	0.00	30.299 
02:20	30.9	30.9	30.9	66	20.9	0	1	270	0.00	30.297 
02:25	30.9	30.9	30.9	67	21.3	0	2	225	0.00	30.298 
02:30	30.7	30.7	30.7	67	21.1	0	1	225	0.00	30.293 
02:35	30.6	30.6	30.6	67	21.0	0	2	112	0.00	30.289 
02:40	30.6	30.6	30.6	68	21.3	0	2	112	0.00	30.288 
02:45	30.6	30.6	30.6	68	21.3	0	3	112	0.00	30.286 
02:50	30.6	30.6	30.6	68	21.3	1	3	135	0.00	30.285 
02:55	30.4	30.4	30.4	69	21.5	1	3	135	0.00	30.285 
03:00	30.4	30.4	30.4	69	21.5	0	2	112	0.00	30.279 
03:05	30.4	30.4	30.4	69	21.5	0	3	112	0.00	30.278 
03:10	30.4	30.4	30.4	69	21.5	1	3	112	0.00	30.273 
03:15	30.6	30.6	30.6	69	21.7	0	3	22	0.00	30.271 
03:20	30.6	30.6	30.6	70	22.0	1	3	90	0.00	30.270 
03:25	30.6	30.6	30.6	70	22.0	1	3	90	0.00	30.262 
03:30	30.6	30.6	30.6	70	22.0	1	3	90	0.00	30.257 
03:35	30.7	30.7	30.7	70	22.1	1	3	112	0.00	30.256 
03:40	30.7	30.7	30.7	70	22.1	1	5	112	0.00	30.257 
03:45	30.7	30.7	30.7	70	22.1	1	2	112	0.00	30.272 
03:50	30.7	30.7	30.7	69	21.8	1	2	22	0.00	30.274 
03:55	30.9	30.9	30.9	70	22.3	0	3	90	0.00	30.268 
04:00	30.9	30.9	30.9	70	22.3	1	3	112	0.00	30.258 
04:05	30.9	30.9	30.9	70	22.3	1	5	112	0.00	30.256 
04:10	30.9	30.9	30.9	71	22.6	0	3	112	0.00	30.258 
04:15	30.9	30.9	30.9	70	22.3	1	4	112	0.00	30.266 
04:20	30.9	30.9	30.9	70	22.3	0	2	112	0.00	30.271 
04:25	30.9	30.9	30.9	70	22.3	0	2	112	0.00	30.271 
04:30	30.9	30.9	30.9	70	22.3	1	2	112	0.00	30.269 
04:35	30.9	30.9	30.9	70	22.3	0	2	112	0.00	30.270 
04:40	30.7	30.7	30.7	70	22.1	0	2	112	0.00	30.269 
04:45	30.7	30.7	30.7	70	22.1	1	3	112	0.00	30.268 
04:50	30.7	30.7	30.7	70	22.1	1	3	112	0.00	30.270 
04:55	30.7	30.7	30.7	71	22.4	2	4	90	0.00	30.264 
05:00	30.6	30.6	30.6	72	22.7	2	5	112	0.00	30.257 
05:05	30.6	30.6	30.6	73	23.0	2	4	90	0.00	30.256 
05:10	30.4	30.4	30.4	73	22.8	1	5	90	0.00	30.262 
05:15	30.4	30.4	30.4	73	22.8	1	3	90	0.00	30.267 
05:20	30.3	30.3	30.3	74	23.0	1	3	135	0.00	30.265 
05:25	30.3	30.3	30.3	74	23.0	2	4	112	0.00	30.261 
05:30	30.3	30.3	30.3	74	23.0	1	3	112	0.00	30.260 
05:35	30.3	30.3	30.3	74	23.0	1	3	112	0.00	30.260 
05:40	30.3	30.3	30.3	74	23.0	1	3	112	0.00	30.263 
05:45	30.3	30.3	30.3	75	23.3	1	5	90	0.00	30.265 
05:50	30.3	30.3	30.3	75	23.3	1	3	112	0.00	30.271 
05:55	30.3	30.3	30.3	75	23.3	1	3	112	0.00	30.276 
06:00	30.3	30.3	30.3	75	23.3	1	2	68	0.00	30.276 
06:05	30.3	30.3	30.3	75	23.3	1	3	90	0.00	30.279 
06:10	30.3	30.3	30.3	75	23.3	1	2	90	0.00	30.278 
06:15	30.3	30.3	30.3	75	23.3	1	2	90	0.00	30.278 
06:20	30.3	30.3	30.3	75	23.3	1	3	90	0.00	30.279 
06:25	30.4	30.4	30.4	75	23.4	1	4	90	0.00	30.275 
06:30	30.4	30.4	30.4	75	23.4	1	4	112	0.00	30.276 
06:35	30.4	30.4	30.4	75	23.4	2	5	112	0.00	30.271 
06:40	30.4	30.4	30.4	76	23.8	2	4	90	0.00	30.270 
06:45	30.4	30.4	30.4	76	23.8	3	6	90	0.00	30.259 
06:50	30.3	30.3	30.3	76	23.7	3	9	112	0.00	30.256 
06:55	30.3	30.3	30.3	76	23.7	3	7	90	0.00	30.255 
07:00	30.3	25.1	30.3	75	23.3	5	10	90	0.00	30.250 
07:05	30.3	30.3	30.3	75	23.3	3	7	112	0.00	30.248 
07:10	30.3	26.1	30.3	75	23.3	4	10	112	0.00	30.248 
07:15	30.3	26.1	30.3	75	23.3	4	10	112	0.00	30.245 
07:20	30.3	30.3	30.3	75	23.3	3	10	112	0.00	30.245 
07:25	30.3	26.1	30.3	74	23.0	4	9	112	0.00	30.242 
07:30	30.3	25.1	30.3	73	22.7	5	9	90	0.00	30.244 
07:35	30.3	30.3	30.3	73	22.7	3	7	90	0.00	30.245 
07:40	30.3	26.1	30.3	72	22.4	4	12	112	0.00	30.246 
07:45	30.4	26.2	30.4	72	22.5	4	9	112	0.00	30.247 
07:50	30.4	26.2	30.4	73	22.8	4	9	112	0.00	30.247 
07:55	30.6	26.5	30.6	73	23.0	4	11	112	0.00	30.247 
08:00	30.6	30.6	30.6	74	23.3	3	5	112	0.00	30.248 
08:05	30.6	30.6	30.6	74	23.3	3	7	112	0.00	30.252 
08:10	30.7	26.6	30.7	74	23.4	4	7	112	0.00	30.252 
08:15	30.6	30.6	30.6	74	23.3	3	6	112	0.00	30.251 
08:20	30.7	30.7	30.7	73	23.1	3	6	90	0.00	30.250 
08:25	30.7	25.5	30.7	73	23.1	5	8	112	0.00	30.248 
08:30	30.7	26.6	30.7	72	22.8	4	9	112	0.00	30.246 
08:35	30.9	25.8	30.9	71	22.6	5	10	112	0.00	30.246 
08:40	30.9	24.9	30.9	71	22.6	6	11	112	0.00	30.243 
08:45	30.9	25.8	30.9	71	22.6	5	11	112	0.00	30.247 
08:50	31.0	31.0	31.0	71	22.7	3	6	112	0.00	30.247 
08:55	31.2	26.1	31.2	71	22.9	5	11	112	0.00	30.236 
09:00	31.2	25.3	31.2	71	22.9	6	11	112	0.00	30.233 
09:05	31.2	26.1	31.2	72	23.2	5	10	112	0.00	30.229 
09:10	31.2	26.1	31.2	73	23.6	5	11	112	0.00	30.224 
09:15	31.2	26.1	31.2	72	23.2	5	13	112	0.00	30.222 
09:20	31.3	26.3	31.3	72	23.3	5	14	112	0.00	30.222 
09:25	31.3	26.3	31.3	73	23.7	5	11	112	0.00	30.218 
09:30	31.5	26.5	31.5	73	23.9	5	12	112	0.00	30.215 
09:35	31.5	24.9	31.5	72	23.5	7	12	90	0.00	30.213 
09:40	31.6	26.6	31.6	73	24.0	5	13	112	0.00	30.207 
09:45	31.6	26.6	31.6	73	24.0	5	11	112	0.00	30.213 
09:50	31.6	26.6	31.6	73	24.0	5	12	112	0.00	30.213 
09:55	31.5	25.6	31.5	73	23.9	6	12	112	0.00	30.215 
10:00	31.6	27.6	31.6	74	24.3	4	9	112	0.00	30.217 
10:05	31.5	25.6	31.5	73	23.9	6	12	112	0.00	30.219 
10:10	31.5	25.6	31.5	73	23.9	6	14	112	0.00	30.221 
10:15	31.6	27.6	31.6	74	24.3	4	13	112	0.00	30.221 
10:20	31.6	26.6	31.6	73	24.0	5	10	112	0.00	30.224 
10:25	31.8	26.0	31.8	74	24.5	6	11	90	0.00	30.219 
10:30	31.8	27.8	31.8	74	24.5	4	10	90	0.00	30.220 
10:35	31.8	27.8	31.8	74	24.5	4	9	112	0.00	30.212 
10:40	31.8	27.8	31.8	74	24.5	4	9	90	0.00	30.218 
10:45	31.9	27.0	31.9	74	24.6	5	11	112	0.00	30.204 
10:50	31.8	26.8	31.8	74	24.5	5	11	112	0.00	30.207 
10:55	32.1	27.2	32.1	74	24.8	5	10	112	0.00	30.196 
11:00	32.2	26.5	32.2	74	24.9	6	11	112	0.00	30.193 
11:05	32.1	27.2	32.1	74	24.8	5	11	112	0.00	30.198 
11:10	32.1	25.6	32.1	74	24.8	7	14	112	0.00	30.188 
11:15	32.2	27.3	32.2	75	25.2	5	10	112	0.00	30.186 
11:20	32.4	27.5	32.4	74	25.1	5	12	112	0.00	30.184 
11:25	32.4	26.0	32.4	73	24.7	7	13	90	0.00	30.176 
11:30	32.4	26.7	32.4	74	25.1	6	12	112	0.00	30.173 
11:35	32.5	27.7	32.5	74	25.2	5	11	112	0.00	30.173 
11:40	32.5	26.1	32.5	74	25.2	7	14	112	0.00	30.173 
11:45	32.5	26.8	32.5	74	25.2	6	12	112	0.00	30.172 
11:50	32.5	26.8	32.5	75	25.5	6	13	112	0.00	30.170 
11:55	32.8	26.5	32.8	75	25.8	7	14	112	0.00	30.165 
12:00	32.9	26.6	32.9	74	25.5	7	11	112	0.00	30.164 
12:05	32.9	27.3	32.9	75	25.9	6	11	112	0.00	30.157 
12:10	33.2	27.7	33.2	75	26.2	6	12	112	0.00	30.156 
12:15	33.2	26.9	33.2	74	25.8	7	14	112	0.00	30.156 
12:20	33.1	26.8	33.1	74	25.7	7	13	112	0.00	30.154 
12:25	33.2	28.5	33.2	75	26.2	5	12	112	0.00	30.146 
12:30	33.4	27.9	33.4	75	26.3	6	11	112	0.00	30.139 
12:35	33.4	27.2	33.4	75	26.3	7	12	112	0.00	30.138 
12:40	33.2	26.9	33.2	76	26.5	7	14	112	0.00	30.133 
12:45	33.2	26.9	33.2	76	26.5	7	13	112	0.00	30.124 
12:50	33.2	26.3	33.2	76	26.5	8	13	112	0.00	30.126 
12:55	33.4	27.2	33.4	77	27.0	7	12	112	0.00	30.118 
13:00	33.5	27.3	33.5	77	27.1	7	13	112	0.00	30.119 
13:05	33.5	28.8	33.5	77	27.1	5	11	112	0.00	30.116 
13:10	33.8	29.2	33.8	78	27.7	5	13	112	0.00	30.108 
13:15	33.8	27.7	33.8	77	27.4	7	15	112	0.00	30.106 
13:20	33.7	26.9	33.7	77	27.3	8	17	112	0.00	30.100 
13:25	33.7	25.8	33.7	78	27.6	10	22	112	0.00	30.089 
13:30	33.8	26.5	33.8	77	27.4	9	18	112	0.00	30.080 
13:35	33.8	26.5	33.8	78	27.7	9	18	90	0.00	30.074 
13:40	34.0	27.3	34.0	77	27.6	8	16	112	0.00	30.063 
13:45	34.1	26.8	34.1	77	27.7	9	21	112	0.00	30.058 
13:50	34.1	26.8	34.1	77	27.7	9	17	112	0.00	30.045 
13:55	34.4	27.2	34.4	76	27.6	9	17	90	0.00	30.038 
14:00	34.6	26.9	34.6	75	27.5	10	16	90	0.00	30.029 
14:05	34.7	27.1	34.7	76	27.9	10	17	112	0.00	30.028 
14:10	35.5	28.6	35.5	75	28.4	9	15	90	0.00	30.016 
14:15	36.2	29.4	36.2	73	28.4	9	17	112	0.00	30.010 
14:20	35.8	28.9	35.8	73	28.0	9	16	112	0.00	30.008 
14:25	35.5	28.6	35.5	73	27.7	9	17	90	0.00	30.010 
14:30	35.3	27.8	35.3	74	27.9	10	19	112	0.00	30.004 
14:35	35.6	29.2	35.6	74	28.1	8	15	112	0.00	30.009 
14:40	35.6	29.2	35.6	74	28.1	8	17	90	0.00	30.012 
14:45	35.2	28.7	35.2	74	27.8	8	14	90	0.00	30.015 
14:50	35.0	27.9	35.0	74	27.6	9	17	90	0.00	30.014 
14:55	35.0	28.5	35.0	74	27.6	8	16	112	0.00	30.015 
15:00	35.2	30.0	35.2	74	27.8	6	13	90	0.00	30.016 
15:05	35.3	30.2	35.3	74	27.9	6	13	112	0.00	30.017 
15:10	35.3	30.2	35.3	74	27.9	6	12	112	0.00	30.019 
15:15	35.3	28.9	35.3	73	27.5	8	15	90	0.00	30.014 
15:20	35.3	29.5	35.3	75	28.2	7	15	90	0.00	30.008 
15:25	35.3	28.3	35.3	75	28.2	9	16	90	0.00	30.000 
15:30	35.5	29.1	35.5	76	28.7	8	17	90	0.00	30.000 
15:35	35.5	28.6	35.5	76	28.7	9	16	112	0.00	29.996 
15:40	35.8	29.5	35.8	76	29.0	8	15	112	0.00	29.991 
15:45	35.8	29.5	35.8	77	29.3	8	17	112	0.00	29.987 
15:50	35.8	30.1	35.8	78	29.6	7	16	112	0.00	29.982 
15:55	35.8	30.1	35.8	78	29.6	7	16	90	0.00	29.977 
16:00	35.8	29.5	35.8	78	29.6	8	16	112	0.00	29.968 
16:05	35.5	28.1	35.5	78	29.3	10	18	112	0.00	29.966 
16:10	35.5	29.7	35.5	79	29.6	7	17	112	0.00	29.965 
16:15	35.5	29.1	35.5	79	29.6	8	19	112	0.00	29.962 
16:20	35.3	28.9	35.3	80	29.8	8	17	112	0.00	29.962 
16:25	35.0	27.9	35.0	81	29.8	9	19	112	0.00	29.960 
16:30	34.7	27.6	34.7	81	29.5	9	19	112	0.00	29.958 
16:35	34.4	28.4	34.4	83	29.8	7	15	112	0.00	29.951 
16:40	34.4	28.4	34.4	83	29.8	7	16	112	0.00	29.953 
16:45	34.3	28.3	34.3	84	30.0	7	15	112	0.00	29.957 
16:50	34.3	27.6	34.3	84	30.0	8	17	112	0.00	29.958 
16:55	34.3	28.3	34.3	84	30.0	7	16	112	0.00	29.961 
17:00	34.1	28.0	34.1	84	29.8	7	17	112	0.00	29.958 
17:05	34.0	27.3	34.0	84	29.7	8	15	112	0.00	29.957 
17:10	34.0	27.9	34.0	84	29.7	7	17	112	0.00	29.961 
17:15	33.8	27.7	33.8	84	29.5	7	15	112	0.00	29.958 
17:20	33.7	28.3	33.7	84	29.4	6	12	112	0.00	29.957 
17:25	33.5	28.0	33.5	85	29.5	6	15	112	0.00	29.955 
17:30	33.4	27.2	33.4	85	29.4	7	19	112	0.00	29.959 
17:35	33.2	26.9	33.2	85	29.2	7	15	112	0.00	29.956 
17:40	33.1	27.5	33.1	86	29.4	6	13	112	0.00	29.954 
17:45	32.9	25.9	32.9	86	29.2	8	16	112	0.00	29.953 
17:50	32.9	27.3	32.9	86	29.2	6	11	90	0.00	29.951 
17:55	32.8	27.2	32.8	87	29.4	6	13	90	0.00	29.950 
18:00	32.7	25.7	32.7	87	29.3	8	17	112	0.00	29.942 
18:05	32.5	26.8	32.5	88	29.3	6	12	90	0.00	29.939 
18:10	32.4	26.7	32.4	88	29.3	6	16	112	0.00	29.940 
18:15	32.4	25.3	32.4	88	29.3	8	17	112	0.00	29.940 
18:20	32.4	26.0	32.4	88	29.3	7	13	112	0.00	29.941 
18:25	32.4	26.0	32.4	88	29.3	7	16	112	0.00	29.938 
18:30	32.4	26.7	32.4	88	29.3	6	13	112	0.00	29.937 
18:35	32.4	26.0	32.4	88	29.3	7	13	112	0.00	29.939 
18:40	32.4	26.7	32.4	88	29.3	6	13	112	0.00	29.937 
18:45	32.2	26.5	32.2	89	29.3	6	13	112	0.00	29.937 
18:50	32.1	26.3	32.1	89	29.2	6	13	112	0.00	29.935 
18:55	31.9	25.4	31.9	89	29.0	7	15	112	0.00	29.931 
19:00	31.8	26.0	31.8	90	29.2	6	16	90	0.00	29.931 
19:05	31.8	26.8	31.8	90	29.2	5	14	112	0.00	29.935 
19:10	31.6	25.0	31.6	90	29.0	7	15	112	0.00	29.933 
19:15	31.6	25.8	31.6	90	29.0	6	14	112	0.00	29.933 
19:20	31.6	25.0	31.6	90	29.0	7	15	112	0.00	29.931 
19:25	31.5	24.9	31.5	90	28.9	7	15	112	0.00	29.930 
19:30	31.5	26.5	31.5	90	28.9	5	12	112	0.00	29.935 
19:35	31.5	31.5	31.5	90	28.9	3	10	112	0.00	29.936 
19:40	31.3	25.4	31.3	90	28.7	6	13	112	0.00	29.934 
19:45	31.2	24.5	31.2	91	28.9	7	15	90	0.00	29.928 
19:50	31.0	25.9	31.0	91	28.7	5	14	112	0.00	29.930 
19:55	31.0	25.9	31.0	91	28.7	5	14	90	0.00	29.935 
20:00	31.0	26.9	31.0	91	28.7	4	12	112	0.00	29.937 
20:05	31.0	25.0	31.0	91	28.7	6	15	112	0.00	29.936 
20:10	30.9	25.8	30.9	91	28.6	5	13	112	0.00	29.935 
20:15	30.9	24.9	30.9	91	28.6	6	15	112	0.00	29.935 
20:20	30.9	25.8	30.9	91	28.6	5	10	112	0.00	29.936 
20:25	30.9	24.2	30.9	91	28.6	7	15	112	0.00	29.930 
20:30	30.9	23.5	30.9	91	28.6	8	16	112	0.00	29.930 
20:35	30.7	25.5	30.7	91	28.4	5	11	112	0.00	29.935 
20:40	30.7	30.7	30.7	91	28.4	3	10	45	0.00	29.937 
20:45	30.6	23.8	30.6	91	28.3	7	19	112	0.00	29.924 
20:50	30.6	22.0	30.6	91	28.3	10	19	112	0.00	29.917 
20:55	30.6	22.0	30.6	91	28.3	10	21	90	0.00	29.904 
21:00	30.6	22.5	30.6	91	28.3	9	17	112	0.00	29.905 
21:05	30.7	24.7	30.7	91	28.4	6	16	112	0.00	29.913 
21:10	30.9	30.9	30.9	91	28.6	2	6	22	0.00	29.932 
21:15	30.9	25.8	30.9	91	28.6	5	13	112	0.00	29.926 
21:20	31.0	23.6	31.0	91	28.7	8	15	112	0.00	29.918 
21:25	31.0	25.0	31.0	91	28.7	6	14	112	0.00	29.920 
21:30	31.2	25.3	31.2	91	28.9	6	14	112	0.00	29.921 
21:35	31.3	26.3	31.3	91	29.0	5	13	112	0.00	29.921 
21:40	31.5	25.6	31.5	91	29.2	6	13	112	0.00	29.915 
21:45	31.6	25.8	31.6	91	29.3	6	14	112	0.00	29.914 
21:50	31.6	25.8	31.6	91	29.3	6	14	112	0.00	29.910 
21:55	31.8	25.3	31.8	91	29.5	7	13	90	0.00	29.902 
22:00	31.8	26.0	31.8	91	29.5	6	14	112	0.00	29.903 
22:05	31.8	26.8	31.8	91	29.5	5	12	112	0.00	29.895 
22:10	31.8	25.3	31.8	91	29.5	7	15	112	0.00	29.896 
22:15	31.9	26.1	31.9	91	29.6	6	12	112	0.00	29.902 
22:20	31.9	25.4	31.9	91	29.6	7	14	112	0.00	29.903 
22:25	31.9	25.4	31.9	91	29.6	7	17	112	0.00	29.904 
22:30	32.1	26.3	32.1	91	29.8	6	14	112	0.00	29.904 
22:35	32.1	27.2	32.1	91	29.8	5	12	112	0.00	29.905 
22:40	32.1	26.3	32.1	91	29.8	6	12	112	0.00	29.907 
22:45	32.1	28.2	32.1	91	29.8	4	10	112	0.00	29.916 
22:50	32.1	27.2	32.1	91	29.8	5	12	112	0.00	29.914 
22:55	32.1	32.1	32.1	91	29.8	3	9	90	0.00	29.903 
23:00	32.1	26.3	32.1	91	29.8	6	15	112	0.00	29.898 
23:05	32.1	25.6	32.1	91	29.8	7	17	112	0.01	29.891 
23:10	32.1	26.3	32.1	91	29.8	6	13	112	0.00	29.900 
23:15	32.1	32.1	32.1	91	29.8	3	8	112	0.00	29.908 
23:20	32.2	27.3	32.2	91	29.9	5	13	90	0.00	29.901 
23:25	32.2	26.5	32.2	91	29.9	6	13	112	0.00	29.894 
23:30	32.1	28.2	32.1	91	29.8	4	11	112	0.00	29.896 
23:35	32.1	27.2	32.1	91	29.8	5	12	112	0.00	29.904 
23:40	32.2	26.5	32.2	91	29.9	6	14	112	0.00	29.905 
23:45	32.2	26.5	32.2	91	29.9	6	14	90	0.00	29.904 
23:50	32.1	25.6	32.1	91	29.8	7	14	112	0.00	29.901 
23:55	32.1	25.6	32.1	92	30.0	7	14	112	0.00	29.901 

CoCoRaHS
IN-AL-39
A2 Web Hosting
Creative Commons License
GoDaddy
Look for:

loaded 2017-12-12 16:33:31 • last modified 2010-11-18 10:43:29
Privacy PolicyDisclaimer
• wx.awcolley.com is powered by PmWiki v.2002016 •
• all content (unless otherwise noted) © 2017 A W Colley